Karns, Tennessee
Current Conditions -  °F | °C
As of 8:53 AM on Friday 28 Nov 2014 (Local Time) from KTYS Reporting Station
Broken Clouds Broken Clouds  
Wind Chill: 29°   Ceiling: 13000
Heat Index: 29°   Visibility: 10mi
Dew Point: 22°   Wind: 0mph
Humidity: 75%   Direction: NA
Pressure: 30.42"   Gusts: NA
Location:  35.9785°N, 84.0015°W
Report Text: KTYS 281353Z 00000KT 10SM BKN130 M02/M06 A3042 RMK AO2 SLP310 T10171056
Loading
Personal Weather Stations






























Interactive Weather Map New forecast layout! Learn more

10-Day Weather Forecast

Advertisements
Track Severe Weather on mobile